Terminal Aerodrome Forecast
Issued by NWS Paducah, KY

Home | Current Version | Previous Version | Text Only | Print | Product List | Glossary On
Versions: 1 2 3 4 5 6 7 8 9 10 11 12 13
000
FTUS43 KPAH 201100
TAFPAH
TAF
KPAH 201126Z 2012/2112 21005KT P6SM VCSH BKN130
     FM201600 24008KT P6SM SCT040
     FM202000 26008KT P6SM BKN040
     FM210200 33003KT P6SM SKC=

USA.gov is the U.S. government's official web portal to all federal, state and local government web resources and services.